.
WxDataArchive / Data Records for 2006-08-10
2006-08-09 August 2006 2006-08-11

Data Records for Thursday, 10 August 2006

Time	Temp	Chill	HIndex	Humid	Dewpt	 Wind 	HiWind	WindDir	Rain 	Barom 
-----	----	-----	------	-----	-----	------	------	-------	-----	----- 
00:00	70.9	70.9	70.9	80	64.4	0	0	---	0.00	29.897 
00:05	70.6	70.6	70.6	81	64.5	0	0	---	0.00	29.897 
00:10	70.4	70.4	70.4	81	64.3	0	0	---	0.00	29.897 
00:15	70.3	70.3	70.3	82	64.5	0	0	---	0.00	29.901 
00:20	69.9	69.9	69.9	82	64.1	0	0	---	0.00	29.901 
00:25	69.8	69.8	69.8	82	64.0	0	0	---	0.00	29.901 
00:30	69.6	69.6	69.6	83	64.2	0	0	---	0.00	29.897 
00:35	69.4	69.4	69.4	83	64.0	0	0	---	0.00	29.897 
00:40	69.3	69.3	69.3	84	64.2	0	0	---	0.00	29.897 
00:45	69.1	69.1	69.1	84	64.1	0	0	---	0.00	29.900 
00:50	68.9	68.9	68.9	84	63.9	0	0	---	0.00	29.900 
00:55	68.8	68.8	68.8	85	64.1	0	0	---	0.00	29.900 
01:00	68.6	68.6	68.6	86	64.2	0	0	---	0.00	29.902 
01:05	68.4	68.4	68.4	86	64.0	0	0	---	0.00	29.902 
01:10	68.4	68.4	68.4	86	64.0	0	0	---	0.00	29.902 
01:15	68.4	68.4	68.4	87	64.4	0	0	---	0.00	29.899 
01:20	68.4	68.4	68.4	87	64.4	0	0	---	0.00	29.899 
01:25	68.4	68.4	68.4	87	64.4	0	0	---	0.00	29.899 
01:30	68.6	68.6	68.6	87	64.6	0	0	---	0.00	29.898 
01:35	68.4	68.4	68.4	87	64.4	0	0	---	0.00	29.898 
01:40	68.4	68.4	68.4	87	64.4	0	0	---	0.00	29.898 
01:45	68.4	68.4	68.4	88	64.7	0	0	---	0.00	29.898 
01:50	68.3	68.3	68.3	88	64.6	0	0	---	0.00	29.898 
01:55	68.1	68.1	68.1	88	64.4	0	0	---	0.00	29.898 
02:00	68.1	68.1	68.1	88	64.4	0	0	---	0.00	29.906 
02:05	68.3	68.3	68.3	88	64.6	0	0	---	0.00	29.906 
02:10	68.4	68.4	68.4	88	64.7	0	0	---	0.00	29.906 
02:15	68.6	68.6	68.6	87	64.6	0	0	---	0.00	29.909 
02:20	68.8	68.8	68.8	87	64.8	0	0	---	0.00	29.909 
02:25	68.9	68.9	68.9	87	64.9	0	0	---	0.00	29.909 
02:30	68.9	68.9	68.9	87	64.9	0	0	---	0.00	29.906 
02:35	69.1	69.1	69.1	86	64.7	0	0	---	0.00	29.906 
02:40	69.3	69.3	69.3	87	65.3	0	0	---	0.00	29.906 
02:45	69.3	69.3	69.3	87	65.3	0	0	---	0.00	29.906 
02:50	69.3	69.3	69.3	86	64.9	0	0	---	0.00	29.906 
02:55	69.4	69.4	69.4	86	65.0	0	0	---	0.00	29.906 
03:00	69.4	69.4	69.4	86	65.0	0	0	---	0.00	29.906 
03:05	69.4	69.4	69.4	86	65.0	0	0	---	0.00	29.906 
03:10	69.6	69.6	69.6	86	65.2	0	0	---	0.00	29.906 
03:15	69.8	69.8	69.8	86	65.4	0	0	---	0.00	29.907 
03:20	69.8	69.8	69.8	86	65.4	0	0	---	0.00	29.907 
03:25	69.9	69.9	69.9	86	65.5	0	0	---	0.00	29.907 
03:30	69.9	69.9	69.9	85	65.2	0	0	---	0.00	29.907 
03:35	69.9	69.9	69.9	85	65.2	0	0	---	0.00	29.907 
03:40	69.9	69.9	69.9	85	65.2	0	0	---	0.00	29.907 
03:45	70.1	70.1	70.1	85	65.4	0	0	---	0.00	29.904 
03:50	70.1	70.1	70.1	84	65.0	0	0	---	0.00	29.904 
03:55	70.1	70.1	70.1	84	65.0	0	0	---	0.00	29.904 
04:00	70.1	70.1	70.1	84	65.0	0	0	---	0.00	29.898 
04:05	70.1	70.1	70.1	85	65.4	0	0	---	0.00	29.898 
04:10	70.1	70.1	70.1	85	65.4	0	0	---	0.00	29.898 
04:15	69.9	69.9	69.9	85	65.2	0	0	---	0.00	29.897 
04:20	69.9	69.9	69.9	85	65.2	0	0	---	0.00	29.897 
04:25	69.8	69.8	69.8	85	65.1	0	0	---	0.00	29.897 
04:30	69.6	69.6	69.6	86	65.2	0	0	---	0.00	29.890 
04:35	69.4	69.4	69.4	86	65.0	0	0	---	0.00	29.890 
04:40	69.3	69.3	69.3	86	64.9	0	0	---	0.00	29.890 
04:45	69.1	69.1	69.1	87	65.1	0	0	---	0.00	29.891 
04:50	68.9	68.9	68.9	87	64.9	0	0	---	0.00	29.891 
04:55	68.8	68.8	68.8	88	65.1	0	1	112	0.00	29.891 
05:00	68.6	68.6	68.6	88	64.9	0	1	112	0.00	29.875 
05:05	68.6	68.6	68.6	88	64.9	0	0	---	0.00	29.875 
05:10	68.6	68.6	68.6	88	64.9	0	0	---	0.00	29.875 
05:15	68.6	68.6	68.6	89	65.2	0	0	---	0.00	29.878 
05:20	68.6	68.6	68.6	89	65.2	0	0	---	0.00	29.878 
05:25	68.6	68.6	68.6	89	65.2	0	0	---	0.00	29.878 
05:30	68.6	68.6	68.6	89	65.2	0	0	---	0.00	29.880 
05:35	68.6	68.6	68.6	89	65.2	0	0	---	0.00	29.880 
05:40	68.6	68.6	68.6	90	65.5	0	0	---	0.00	29.880 
05:45	68.4	68.4	68.4	90	65.3	0	0	---	0.00	29.882 
05:50	68.4	68.4	68.4	90	65.3	0	0	---	0.00	29.882 
05:55	68.3	68.3	68.3	90	65.2	0	0	---	0.00	29.882 
06:00	68.1	68.1	68.1	90	65.0	0	0	---	0.00	29.874 
06:05	68.1	68.1	68.1	90	65.0	0	0	---	0.00	29.874 
06:10	67.9	67.9	67.9	91	65.2	0	0	---	0.00	29.874 
06:15	67.9	67.9	67.9	91	65.2	0	0	---	0.00	29.882 
06:20	67.9	67.9	67.9	91	65.2	0	0	---	0.00	29.882 
06:25	67.8	67.8	67.8	92	65.4	0	0	---	0.00	29.882 
06:30	67.8	67.8	67.8	92	65.4	0	0	---	0.00	29.874 
06:35	67.6	67.6	67.6	92	65.2	0	0	---	0.00	29.874 
06:40	67.4	67.4	67.4	91	64.7	0	0	---	0.00	29.874 
06:45	67.4	67.4	67.4	91	64.7	0	0	---	0.00	29.875 
06:50	67.3	67.3	67.3	92	64.9	0	0	---	0.00	29.875 
06:55	67.1	67.1	67.1	92	64.7	0	0	---	0.00	29.875 
07:00	67.1	67.1	67.1	92	64.7	0	0	---	0.00	29.875 
07:05	67.1	67.1	67.1	92	64.7	0	0	---	0.00	29.875 
07:10	66.9	66.9	66.9	92	64.5	0	0	---	0.00	29.875 
07:15	66.9	66.9	66.9	92	64.5	0	0	---	0.00	29.878 
07:20	67.1	67.1	67.1	93	65.0	0	0	---	0.00	29.878 
07:25	67.3	67.3	67.3	93	65.2	0	1	112	0.00	29.878 
07:30	67.4	67.4	67.4	93	65.3	0	0	---	0.00	29.878 
07:35	67.6	67.6	67.6	93	65.5	0	0	---	0.00	29.878 
07:40	67.9	67.9	67.9	93	65.8	0	0	---	0.00	29.878 
07:45	68.3	68.3	68.3	93	66.2	0	0	---	0.00	29.881 
07:50	68.6	68.6	68.6	93	66.5	0	0	---	0.00	29.881 
07:55	68.8	68.8	68.8	91	66.1	0	1	112	0.00	29.881 
08:00	69.1	69.1	69.1	89	65.7	0	1	112	0.00	29.882 
08:05	69.6	69.6	69.6	88	65.9	0	2	112	0.00	29.882 
08:10	70.1	70.1	70.1	86	65.7	0	2	112	0.00	29.882 
08:15	70.4	70.4	70.4	85	65.7	0	1	112	0.00	29.881 
08:20	70.6	70.6	70.6	85	65.9	0	2	112	0.00	29.881 
08:25	70.6	70.6	70.6	85	65.9	0	1	112	0.00	29.881 
08:30	70.6	70.6	70.6	84	65.5	1	2	112	0.00	29.890 
08:35	70.8	70.8	70.8	84	65.7	1	2	112	0.00	29.890 
08:40	70.9	70.9	70.9	83	65.5	1	3	112	0.00	29.890 
08:45	71.1	71.1	71.1	82	65.3	1	3	112	0.00	29.881 
08:50	71.3	71.3	71.3	81	65.2	1	2	112	0.00	29.881 
08:55	71.8	71.8	71.8	79	64.9	0	3	112	0.00	29.881 
09:00	72.1	72.1	72.1	80	65.6	1	3	112	0.00	29.873 
09:05	72.5	72.5	72.5	79	65.6	1	2	112	0.00	29.873 
09:10	73.2	73.2	73.2	80	66.6	0	1	112	0.00	29.873 
09:15	73.5	73.5	73.5	78	66.2	0	2	112	0.00	29.889 
09:20	73.7	73.7	73.7	79	66.8	0	1	112	0.00	29.889 
09:25	74.0	74.0	74.0	79	67.1	0	1	112	0.00	29.889 
09:30	74.2	74.2	74.2	79	67.3	1	2	112	0.00	29.890 
09:35	74.4	74.4	74.4	80	67.8	1	2	112	0.00	29.890 
09:40	74.7	74.7	74.7	78	67.4	1	3	112	0.00	29.890 
09:45	74.9	74.9	74.9	78	67.6	1	2	112	0.00	29.874 
09:50	75.3	75.3	76.2	78	68.0	0	2	112	0.00	29.874 
09:55	75.8	75.8	76.9	78	68.4	0	2	112	0.00	29.874 
10:00	75.8	75.8	76.9	78	68.4	1	4	112	0.00	29.885 
10:05	75.8	75.8	76.9	78	68.4	1	2	112	0.00	29.885 
10:10	75.6	75.6	76.5	79	68.6	2	5	90	0.00	29.885 
10:15	75.4	75.4	76.3	78	68.0	2	4	112	0.00	29.889 
10:20	75.1	75.1	76.0	78	67.8	2	4	112	0.00	29.889 
10:25	75.1	75.1	76.1	77	67.4	0	2	112	0.00	29.889 
10:30	75.1	75.1	76.2	76	67.0	1	3	112	0.00	29.892 
10:35	74.9	74.9	74.9	77	67.2	2	3	90	0.00	29.892 
10:40	74.9	74.9	74.9	78	67.6	0	2	90	0.00	29.892 
10:45	75.1	75.1	76.2	76	67.0	1	2	90	0.00	29.885 
10:50	75.4	75.4	76.5	76	67.3	2	3	90	0.00	29.885 
10:55	75.6	75.6	76.8	76	67.5	1	3	90	0.00	29.885 
11:00	75.6	75.6	76.9	75	67.1	1	3	90	0.00	29.886 
11:05	76.0	76.0	77.4	75	67.5	1	3	90	0.00	29.886 
11:10	76.1	76.1	77.5	74	67.2	2	4	90	0.00	29.886 
11:15	76.3	76.3	77.7	76	68.2	2	4	112	0.00	29.885 
11:20	76.5	76.5	78.0	75	68.0	2	4	112	0.00	29.885 
11:25	77.0	77.0	78.7	73	67.7	2	4	90	0.00	29.885 
11:30	77.4	77.4	79.3	73	68.0	2	5	90	0.00	29.891 
11:35	77.7	77.7	79.7	73	68.3	2	5	90	0.00	29.891 
11:40	77.9	77.9	79.9	72	68.1	2	4	90	0.00	29.891 
11:45	78.1	78.1	80.3	73	68.7	1	3	90	0.00	29.896 
11:50	78.1	78.1	80.3	73	68.7	2	5	90	0.00	29.896 
11:55	77.7	77.7	79.7	73	68.3	2	5	90	0.00	29.896 
12:00	77.4	77.4	79.3	73	68.0	2	6	112	0.00	29.901 
12:05	77.2	77.2	79.0	73	67.9	2	5	90	0.00	29.901 
12:10	77.0	77.0	78.7	73	67.7	3	4	112	0.00	29.901 
12:15	76.8	76.8	78.5	73	67.5	2	5	112	0.00	29.888 
12:20	76.7	76.7	78.3	74	67.8	1	4	90	0.00	29.888 
12:25	76.5	76.5	78.1	74	67.6	3	5	90	0.00	29.888 
12:30	76.3	76.3	77.8	73	67.0	3	5	90	0.00	29.879 
12:35	76.1	76.1	77.6	73	66.8	2	7	90	0.00	29.879 
12:40	76.0	76.0	77.4	74	67.1	2	5	112	0.00	29.879 
12:45	76.0	76.0	77.4	74	67.1	1	3	90	0.00	29.878 
12:50	75.8	75.8	77.1	75	67.3	1	3	90	0.00	29.878 
12:55	75.8	75.8	77.1	75	67.3	1	4	90	0.00	29.878 
13:00	75.6	75.6	76.8	76	67.5	0	2	90	0.00	29.870 
13:05	75.6	75.6	76.8	76	67.5	0	2	90	0.00	29.870 
13:10	75.4	75.4	76.4	77	67.7	0	1	90	0.00	29.870 
13:15	75.4	75.4	76.3	78	68.0	0	1	90	0.00	29.884 
13:20	75.3	75.3	76.2	78	68.0	0	1	90	0.00	29.884 
13:25	75.1	75.1	76.0	78	67.8	0	0	---	0.00	29.884 
13:30	75.1	75.1	76.0	78	67.8	0	1	90	0.00	29.897 
13:35	75.1	75.1	76.0	78	67.8	0	0	---	0.00	29.897 
13:40	75.1	75.1	76.0	78	67.8	0	0	---	0.00	29.897 
13:45	75.1	75.1	76.0	78	67.8	0	0	---	0.00	29.903 
13:50	75.1	75.1	76.0	78	67.8	0	1	90	0.00	29.903 
13:55	75.1	75.1	76.0	78	67.8	0	1	90	0.00	29.903 
14:00	75.1	75.1	75.8	79	68.1	0	0	---	0.00	29.902 
14:05	74.9	74.9	74.9	79	67.9	0	1	90	0.00	29.902 
14:10	74.9	74.9	74.9	79	67.9	0	1	90	0.00	29.902 
14:15	74.9	74.9	74.9	80	68.3	0	1	90	0.00	29.900 
14:20	74.9	74.9	74.9	80	68.3	0	0	---	0.00	29.900 
14:25	74.7	74.7	74.7	82	68.8	0	1	90	0.00	29.900 
14:30	74.4	74.4	74.4	83	68.9	2	5	90	0.01	29.875 
14:35	73.9	73.9	73.9	84	68.7	1	3	90	0.01	29.875 
14:40	73.3	73.3	73.3	86	68.8	2	5	112	0.00	29.875 
14:45	72.8	72.8	72.8	87	68.7	1	6	112	0.01	29.854 
14:50	72.7	72.7	72.7	88	68.9	0	1	112	0.00	29.854 
14:55	72.7	72.7	72.7	89	69.3	1	3	112	0.01	29.854 
15:00	72.7	72.7	72.7	90	69.6	1	4	90	0.01	29.847 
15:05	72.7	72.7	72.7	90	69.6	0	2	90	0.00	29.847 
15:10	72.8	72.8	72.8	91	70.0	0	2	90	0.00	29.847 
15:15	73.0	73.0	73.0	91	70.2	0	1	90	0.00	29.849 
15:20	73.3	73.3	73.3	90	70.2	0	2	90	0.00	29.849 
15:25	73.5	73.5	73.5	88	69.7	1	3	90	0.00	29.849 
15:30	73.9	73.9	73.9	87	69.8	1	3	90	0.00	29.843 
15:35	74.6	74.6	74.6	88	70.8	1	4	90	0.00	29.843 
15:40	75.3	75.3	75.5	84	70.1	1	3	90	0.00	29.843 
15:45	75.8	75.8	76.3	84	70.6	2	4	90	0.00	29.838 
15:50	76.7	76.7	78.0	81	70.4	1	4	90	0.00	29.838 
15:55	77.2	77.2	78.9	78	69.8	1	4	90	0.00	29.838 
16:00	77.2	77.2	79.0	77	69.4	1	3	112	0.00	29.843 
16:05	77.6	77.6	79.6	78	70.2	1	5	135	0.00	29.843 
16:10	78.1	78.1	80.4	77	70.3	2	5	90	0.00	29.843 
16:15	78.5	78.5	80.9	73	69.1	2	5	90	0.00	29.844 
16:20	78.3	78.3	80.6	73	68.9	1	5	90	0.00	29.844 
16:25	77.9	77.9	80.0	73	68.5	1	3	112	0.00	29.844 
16:30	77.9	77.9	80.0	75	69.3	1	6	112	0.00	29.842 
16:35	77.7	77.7	79.7	73	68.3	1	4	90	0.00	29.842 
16:40	77.7	77.7	79.7	74	68.7	2	7	90	0.00	29.842 
16:45	77.6	77.6	79.6	74	68.6	2	6	90	0.00	29.834 
16:50	77.7	77.7	79.7	74	68.7	2	4	90	0.00	29.834 
16:55	78.1	78.1	80.3	73	68.7	1	4	135	0.00	29.834 
17:00	77.9	77.9	80.0	73	68.5	2	4	68	0.00	29.835 
17:05	77.7	77.7	79.7	74	68.7	1	4	90	0.00	29.835 
17:10	77.6	77.6	79.6	74	68.6	1	3	90	0.00	29.835 
17:15	77.4	77.4	79.3	75	68.8	0	1	112	0.00	29.844 
17:20	77.4	77.4	79.3	74	68.4	0	1	112	0.00	29.844 
17:25	77.2	77.2	79.0	73	67.9	1	3	112	0.00	29.844 
17:30	77.0	77.0	78.7	73	67.7	1	3	112	0.00	29.848 
17:35	76.8	76.8	78.5	73	67.5	2	3	90	0.00	29.848 
17:40	76.8	76.8	78.4	74	67.9	1	2	90	0.00	29.848 
17:45	76.7	76.7	78.3	75	68.2	0	1	90	0.00	29.845 
17:50	76.5	76.5	78.0	75	68.0	0	2	90	0.00	29.845 
17:55	76.3	76.3	77.7	75	67.8	0	2	90	0.00	29.845 
18:00	76.3	76.3	77.7	75	67.8	0	1	90	0.00	29.845 
18:05	76.1	76.1	77.5	74	67.2	0	2	90	0.00	29.845 
18:10	76.1	76.1	77.5	74	67.2	0	1	90	0.00	29.845 
18:15	76.1	76.1	77.6	73	66.8	0	1	90	0.00	29.849 
18:20	76.1	76.1	77.6	73	66.8	0	1	90	0.00	29.849 
18:25	76.3	76.3	77.8	73	67.0	1	2	90	0.00	29.849 
18:30	76.3	76.3	77.8	73	67.0	0	1	90	0.00	29.833 
18:35	76.3	76.3	77.8	73	67.0	0	1	90	0.00	29.833 
18:40	76.3	76.3	77.8	73	67.0	0	0	---	0.00	29.833 
18:45	76.3	76.3	77.8	73	67.0	0	1	90	0.00	29.835 
18:50	76.3	76.3	77.8	73	67.0	0	0	---	0.00	29.835 
18:55	76.5	76.5	78.1	73	67.2	1	2	90	0.00	29.835 
19:00	76.5	76.5	78.1	73	67.2	0	3	90	0.00	29.832 
19:05	76.7	76.7	78.3	73	67.4	0	1	90	0.00	29.832 
19:10	76.7	76.7	78.3	73	67.4	0	1	90	0.00	29.832 
19:15	76.7	76.7	78.4	72	67.0	0	2	90	0.00	29.833 
19:20	76.7	76.7	78.3	73	67.4	0	1	90	0.00	29.833 
19:25	76.7	76.7	78.3	73	67.4	0	1	90	0.00	29.833 
19:30	76.7	76.7	78.3	74	67.8	0	0	---	0.00	29.840 
19:35	76.5	76.5	78.1	74	67.6	0	1	90	0.00	29.840 
19:40	76.5	76.5	78.1	73	67.2	0	0	---	0.00	29.840 
19:45	76.3	76.3	77.8	74	67.4	0	0	---	0.00	29.841 
19:50	76.3	76.3	77.8	74	67.4	0	1	90	0.00	29.841 
19:55	76.1	76.1	77.5	74	67.2	0	2	90	0.00	29.841 
20:00	76.1	76.1	77.6	73	66.8	0	1	90	0.00	29.840 
20:05	76.1	76.1	77.6	73	66.8	0	2	90	0.00	29.840 
20:10	76.0	76.0	77.4	74	67.1	0	1	90	0.00	29.840 
20:15	76.0	76.0	77.4	75	67.5	0	1	90	0.00	29.834 
20:20	76.0	76.0	77.4	74	67.1	0	3	90	0.00	29.834 
20:25	76.0	76.0	77.4	75	67.5	1	3	90	0.00	29.834 
20:30	75.8	75.8	77.1	75	67.3	0	1	90	0.00	29.842 
20:35	75.8	75.8	77.2	74	66.9	0	3	90	0.00	29.842 
20:40	75.6	75.6	76.9	75	67.1	0	3	90	0.00	29.842 
20:45	75.6	75.6	77.0	74	66.7	1	3	90	0.00	29.843 
20:50	75.4	75.4	76.7	74	66.5	1	3	90	0.00	29.843 
20:55	75.4	75.4	76.7	74	66.5	0	2	90	0.00	29.843 
21:00	75.3	75.3	76.6	74	66.4	1	2	90	0.00	29.846 
21:05	75.3	75.3	76.5	75	66.8	0	1	90	0.00	29.846 
21:10	75.1	75.1	76.3	75	66.6	0	2	90	0.00	29.846 
21:15	75.1	75.1	76.2	76	67.0	1	2	90	0.00	29.841 
21:20	74.9	74.9	74.9	76	66.8	0	1	90	0.00	29.841 
21:25	74.7	74.7	74.7	76	66.6	0	2	90	0.00	29.841 
21:30	74.6	74.6	74.6	77	66.9	0	1	90	0.00	29.845 
21:35	74.4	74.4	74.4	77	66.7	0	1	90	0.00	29.845 
21:40	74.4	74.4	74.4	77	66.7	0	3	90	0.00	29.845 
21:45	74.2	74.2	74.2	77	66.5	1	3	90	0.00	29.845 
21:50	74.0	74.0	74.0	76	65.9	1	2	90	0.00	29.845 
21:55	74.0	74.0	74.0	77	66.3	0	1	90	0.00	29.845 
22:00	73.9	73.9	73.9	76	65.8	0	1	90	0.00	29.857 
22:05	73.9	73.9	73.9	76	65.8	0	2	90	0.00	29.857 
22:10	73.7	73.7	73.7	76	65.6	0	0	---	0.00	29.857 
22:15	73.5	73.5	73.5	75	65.1	0	1	90	0.00	29.863 
22:20	73.5	73.5	73.5	76	65.5	0	0	---	0.00	29.863 
22:25	73.3	73.3	73.3	76	65.3	0	1	90	0.00	29.863 
22:30	73.3	73.3	73.3	76	65.3	0	1	90	0.00	29.871 
22:35	73.3	73.3	73.3	76	65.3	0	3	90	0.00	29.871 
22:40	73.3	73.3	73.3	75	64.9	1	3	90	0.00	29.871 
22:45	73.3	73.3	73.3	75	64.9	0	1	90	0.00	29.874 
22:50	73.3	73.3	73.3	75	64.9	0	1	90	0.00	29.874 
22:55	73.2	73.2	73.2	75	64.8	0	1	90	0.00	29.874 
23:00	73.2	73.2	73.2	76	65.2	0	0	---	0.00	29.878 
23:05	73.2	73.2	73.2	76	65.2	0	1	90	0.00	29.878 
23:10	73.0	73.0	73.0	75	64.6	0	1	90	0.00	29.878 
23:15	73.0	73.0	73.0	76	65.0	0	1	90	0.00	29.879 
23:20	72.8	72.8	72.8	75	64.4	0	2	90	0.00	29.879 
23:25	72.8	72.8	72.8	75	64.4	0	1	90	0.00	29.879 
23:30	72.8	72.8	72.8	75	64.4	0	2	90	0.00	29.885 
23:35	72.8	72.8	72.8	75	64.4	0	1	90	0.00	29.885 
23:40	72.7	72.7	72.7	75	64.3	0	1	90	0.00	29.885 
23:45	72.7	72.7	72.7	76	64.7	0	1	90	0.00	29.884 
23:50	72.7	72.7	72.7	76	64.7	0	1	90	0.00	29.884 
23:55	72.5	72.5	72.5	76	64.5	1	3	90	0.00	29.884 

CoCoRaHS
IN-AL-39
A2 Web Hosting
Creative Commons License
GoDaddy
Look for:

loaded 2017-10-17 09:23:28 • last modified 2010-11-18 10:43:29
Privacy PolicyDisclaimer
• wx.awcolley.com is powered by PmWiki v.2002016 •
• all content (unless otherwise noted) © 2017 A W Colley